createdAt,value
2022-10-01T00:00:04.613Z,60.78
2022-10-01T00:00:49.382Z,60.50
2022-10-01T00:01:38.558Z,60.14
2022-10-01T00:02:12.124Z,58.92
2022-10-01T00:02:45.537Z,58.32
2022-10-01T00:03:19.925Z,58.03
2022-10-01T00:03:53.623Z,58.27
2022-10-01T00:04:27.995Z,58.85
2022-10-01T00:05:01.685Z,59.49
2022-10-01T00:05:34.884Z,60.21
2022-10-01T00:06:12.355Z,60.97
2022-10-01T00:06:45.641Z,61.67
2022-10-01T00:07:18.930Z,62.62
2022-10-01T00:07:52.253Z,63.66
2022-10-01T00:08:25.670Z,64.13
2022-10-01T00:08:59.134Z,63.90
2022-10-01T00:09:32.705Z,63.41
2022-10-01T00:10:07.048Z,62.66
2022-10-01T00:10:44.473Z,61.90
2022-10-01T00:11:26.401Z,61.34
2022-10-01T00:12:00.211Z,60.80
2022-10-01T00:12:35.091Z,59.91
2022-10-01T00:13:08.686Z,59.37
2022-10-01T00:13:46.543Z,58.50
2022-10-01T00:14:20.290Z,58.18
2022-10-01T00:14:53.463Z,58.42
2022-10-01T00:15:26.872Z,58.91
2022-10-01T00:16:00.710Z,59.50
2022-10-01T00:16:34.003Z,60.21
2022-10-01T00:17:07.341Z,60.94
2022-10-01T00:17:41.227Z,61.62
2022-10-01T00:18:14.896Z,62.28
2022-10-01T00:18:49.613Z,63.12
2022-10-01T00:19:23.103Z,63.95
2022-10-01T00:19:56.325Z,64.16
2022-10-01T00:20:29.741Z,63.81
2022-10-01T00:21:07.518Z,63.18
2022-10-01T00:21:40.921Z,62.54
2022-10-01T00:22:14.070Z,61.64
2022-10-01T00:22:47.671Z,60.86
2022-10-01T00:23:20.873Z,60.27
2022-10-01T00:23:59.814Z,59.77
2022-10-01T00:24:33.209Z,59.38
2022-10-01T00:25:07.345Z,58.58
2022-10-01T00:25:41.653Z,58.40
2022-10-01T00:26:21.213Z,58.55
2022-10-01T00:26:54.388Z,58.99
2022-10-01T00:27:28.039Z,59.97
2022-10-01T00:28:01.526Z,60.75
2022-10-01T00:28:34.831Z,61.47
2022-10-01T00:29:13.146Z,62.28
2022-10-01T00:29:46.290Z,63.04
2022-10-01T00:30:19.574Z,63.91
2022-10-01T00:30:52.843Z,64.22
2022-10-01T00:31:27.428Z,63.97
2022-10-01T00:32:00.952Z,63.32
2022-10-01T00:32:34.155Z,62.55
2022-10-01T00:33:07.454Z,61.97
2022-10-01T00:33:40.926Z,61.28
2022-10-01T00:34:16.109Z,60.65
2022-10-01T00:34:49.462Z,60.29
2022-10-01T00:35:23.604Z,59.84
2022-10-01T00:35:57.397Z,59.49
2022-10-01T00:36:32.117Z,59.01
2022-10-01T00:37:05.343Z,58.54
2022-10-01T00:37:39.243Z,58.46
2022-10-01T00:38:14.346Z,58.76
2022-10-01T00:38:48.653Z,59.34
2022-10-01T00:39:22.505Z,60.03
2022-10-01T00:39:55.791Z,60.65
2022-10-01T00:40:29.212Z,61.34
2022-10-01T00:41:03.900Z,62.14
2022-10-01T00:41:37.569Z,62.95
2022-10-01T00:42:27.022Z,63.74
2022-10-01T00:43:00.266Z,64.36
2022-10-01T00:43:37.053Z,63.70
2022-10-01T00:44:32.469Z,63.27
2022-10-01T00:45:05.981Z,63.06
2022-10-01T00:45:39.848Z,61.60
2022-10-01T00:46:28.147Z,60.93
2022-10-01T00:47:11.716Z,60.63
2022-10-01T00:48:00.705Z,60.11
2022-10-01T00:48:44.742Z,60.01
2022-10-01T00:49:24.524Z,59.76
2022-10-01T00:50:16.750Z,59.84
2022-10-01T00:50:52.123Z,59.62
2022-10-01T00:51:35.858Z,58.81
2022-10-01T00:52:14.129Z,58.70
2022-10-01T00:52:52.449Z,59.32
2022-10-01T00:53:26.746Z,59.97
2022-10-01T00:54:10.756Z,60.82
2022-10-01T00:55:05.013Z,61.29
2022-10-01T00:55:43.169Z,61.86
2022-10-01T00:56:16.380Z,63.46
2022-10-01T00:56:55.751Z,64.42
2022-10-01T00:57:29.905Z,64.64
2022-10-01T00:58:05.277Z,64.09
2022-10-01T00:58:39.824Z,63.53
2022-10-01T00:59:16.450Z,62.82
2022-10-01T00:59:52.360Z,62.13
2022-10-01T01:00:25.772Z,61.28
2022-10-01T01:00:59.379Z,60.57
2022-10-01T01:01:36.926Z,59.87
2022-10-01T01:02:11.536Z,59.41
2022-10-01T01:02:45.017Z,58.69
2022-10-01T01:03:18.681Z,58.43
2022-10-01T01:03:52.180Z,58.69
2022-10-01T01:04:25.533Z,59.19
2022-10-01T01:04:59.513Z,59.83
2022-10-01T01:05:33.080Z,60.55
2022-10-01T01:06:08.431Z,61.18
2022-10-01T01:06:41.599Z,61.81
2022-10-01T01:07:16.252Z,62.60
2022-10-01T01:07:53.021Z,63.54
2022-10-01T01:08:26.284Z,64.06
2022-10-01T01:08:59.692Z,63.75
2022-10-01T01:09:44.971Z,63.25
2022-10-01T01:10:28.387Z,62.95
2022-10-01T01:11:35.633Z,61.89
2022-10-01T01:12:21.308Z,61.60
2022-10-01T01:12:54.424Z,60.04
2022-10-01T01:13:37.662Z,58.89
2022-10-01T01:14:20.424Z,58.14
2022-10-01T01:15:14.434Z,58.03
2022-10-01T01:16:12.953Z,58.20
2022-10-01T01:17:03.586Z,59.10
2022-10-01T01:18:03.873Z,60.21
2022-10-01T01:18:48.173Z,61.18
2022-10-01T01:19:41.566Z,62.91
2022-10-01T01:20:26.783Z,64.53
2022-10-01T01:21:09.259Z,64.45
2022-10-01T01:21:45.956Z,63.56
2022-10-01T01:22:24.742Z,62.40
2022-10-01T01:23:08.874Z,61.60
2022-10-01T01:24:04.198Z,61.13
2022-10-01T01:24:49.016Z,60.97
2022-10-01T01:25:38.738Z,60.13
2022-10-01T01:26:19.275Z,59.38
2022-10-01T01:27:10.851Z,58.31
2022-10-01T01:27:48.921Z,58.18
2022-10-01T01:28:31.886Z,59.15
2022-10-01T01:29:28.652Z,59.85
2022-10-01T01:30:11.948Z,60.39
2022-10-01T01:30:49.685Z,61.78
2022-10-01T01:31:30.698Z,62.91
2022-10-01T01:32:14.853Z,63.90
2022-10-01T01:32:59.527Z,64.14
2022-10-01T01:33:37.522Z,63.80
2022-10-01T01:34:14.446Z,62.78
2022-10-01T01:34:50.609Z,61.94
2022-10-01T01:35:42.500Z,61.30
2022-10-01T01:36:19.695Z,61.08
2022-10-01T01:36:59.902Z,60.16
2022-10-01T01:37:40.483Z,59.96
2022-10-01T01:38:19.133Z,59.98
2022-10-01T01:38:58.840Z,60.28
2022-10-01T01:39:35.176Z,60.55
2022-10-01T01:40:12.524Z,60.29
2022-10-01T01:40:51.871Z,59.95
2022-10-01T01:41:29.606Z,59.68
2022-10-01T01:42:09.775Z,59.13
2022-10-01T01:42:45.071Z,58.59
2022-10-01T01:43:24.573Z,58.77
2022-10-01T01:44:02.458Z,59.04
2022-10-01T01:44:40.103Z,59.60
2022-10-01T01:45:20.394Z,60.30
2022-10-01T01:45:56.855Z,60.92
2022-10-01T01:46:34.402Z,61.97
2022-10-01T01:47:10.836Z,62.71
2022-10-01T01:47:46.034Z,63.71
2022-10-01T01:48:19.279Z,64.07
2022-10-01T01:48:53.601Z,63.85
2022-10-01T01:49:27.075Z,63.40
2022-10-01T01:50:06.360Z,62.72
2022-10-01T01:51:08.679Z,62.23
2022-10-01T01:51:53.416Z,62.15
2022-10-01T01:52:26.762Z,61.13
2022-10-01T01:53:00.289Z,60.20
2022-10-01T01:53:34.808Z,59.79
2022-10-01T01:54:08.909Z,59.44
2022-10-01T01:54:50.002Z,59.15
2022-10-01T01:55:25.596Z,58.86
2022-10-01T01:56:00.596Z,59.07
2022-10-01T01:56:34.648Z,59.58
2022-10-01T01:57:09.140Z,60.17
2022-10-01T01:57:44.548Z,60.89
2022-10-01T01:58:19.127Z,61.66
2022-10-01T01:58:54.221Z,62.48
2022-10-01T01:59:28.101Z,63.22
2022-10-01T02:00:02.692Z,63.97
2022-10-01T02:00:36.895Z,64.49
2022-10-01T02:01:34.781Z,64.68
2022-10-01T02:02:13.725Z,64.59
2022-10-01T02:02:52.121Z,64.18
2022-10-01T02:03:29.539Z,63.80
2022-10-01T02:04:07.133Z,63.43
2022-10-01T02:04:57.825Z,63.07
2022-10-01T02:05:55.309Z,62.90
2022-10-01T02:06:48.808Z,62.42
2022-10-01T02:07:37.649Z,61.97
2022-10-01T02:08:41.617Z,61.70
2022-10-01T02:09:48.983Z,61.62
2022-10-01T02:10:34.542Z,61.49
2022-10-01T02:11:22.039Z,61.09
2022-10-01T02:12:09.671Z,61.02
2022-10-01T02:13:01.887Z,60.81
2022-10-01T02:13:50.475Z,60.77
2022-10-01T02:14:43.899Z,60.71
2022-10-01T02:15:35.569Z,60.60
2022-10-01T02:16:27.894Z,60.84
2022-10-01T02:17:11.452Z,61.00
2022-10-01T02:17:54.056Z,61.18
2022-10-01T02:18:36.247Z,61.35
2022-10-01T02:19:28.270Z,61.69
2022-10-01T02:20:14.365Z,61.88
2022-10-01T02:21:04.664Z,62.01
2022-10-01T02:21:42.475Z,62.16
2022-10-01T02:22:23.960Z,62.27
2022-10-01T02:23:10.359Z,62.25
2022-10-01T02:23:59.845Z,62.28
2022-10-01T02:24:41.734Z,62.41
2022-10-01T02:25:19.504Z,62.58
2022-10-01T02:25:58.705Z,62.65
2022-10-01T02:26:35.475Z,62.60
2022-10-01T02:27:30.715Z,62.66
2022-10-01T02:28:33.180Z,62.82
2022-10-01T02:29:10.210Z,63.01
2022-10-01T02:29:45.627Z,63.13
2022-10-01T02:30:19.460Z,63.17
2022-10-01T02:30:56.230Z,63.11
2022-10-01T02:31:32.689Z,63.23
2022-10-01T02:32:07.279Z,63.29
2022-10-01T02:32:44.877Z,63.34
2022-10-01T02:33:24.753Z,63.41
2022-10-01T02:34:00.345Z,63.32
2022-10-01T02:34:34.290Z,63.46
2022-10-01T02:35:11.147Z,63.54
2022-10-01T02:35:46.844Z,63.64
2022-10-01T02:36:23.211Z,63.74
2022-10-01T02:36:59.706Z,63.85
2022-10-01T02:37:34.711Z,64.03
2022-10-01T02:38:11.115Z,64.17
2022-10-01T02:38:46.742Z,64.24
2022-10-01T02:39:23.307Z,64.45
2022-10-01T02:39:58.921Z,64.46
2022-10-01T02:40:36.733Z,64.57
2022-10-01T02:41:12.952Z,64.60
2022-10-01T02:41:50.583Z,64.64
2022-10-01T02:42:27.837Z,64.68
2022-10-01T02:43:12.427Z,64.78
2022-10-01T02:43:57.483Z,64.73
2022-10-01T02:44:40.478Z,64.74
2022-10-01T02:45:18.484Z,64.77
2022-10-01T02:45:58.938Z,64.84
2022-10-01T02:47:10.963Z,64.90
2022-10-01T02:47:48.112Z,64.67
2022-10-01T02:48:21.743Z,64.81
2022-10-01T02:48:56.186Z,65.01
2022-10-01T02:49:31.035Z,65.06
2022-10-01T02:50:06.752Z,65.05
2022-10-01T02:50:53.267Z,65.16
2022-10-01T02:51:53.585Z,65.26
2022-10-01T02:52:29.702Z,65.35
2022-10-01T02:53:10.272Z,65.54
2022-10-01T02:53:53.379Z,65.57
2022-10-01T02:54:52.459Z,65.61
2022-10-01T02:55:31.127Z,65.76
2022-10-01T02:56:06.101Z,66.02
2022-10-01T02:56:59.658Z,66.04
2022-10-01T02:57:33.323Z,66.14
2022-10-01T02:58:08.049Z,66.12
2022-10-01T02:58:42.253Z,66.11
2022-10-01T02:59:15.382Z,66.13
2022-10-01T02:59:49.216Z,66.10
2022-10-01T03:00:23.096Z,66.08
2022-10-01T03:00:56.393Z,66.01
2022-10-01T03:01:30.137Z,65.94
2022-10-01T03:02:04.148Z,65.78
2022-10-01T03:02:37.795Z,65.75
2022-10-01T03:03:11.197Z,65.73
2022-10-01T03:03:44.451Z,65.79
2022-10-01T03:04:19.462Z,65.78
2022-10-01T03:04:52.612Z,65.79
2022-10-01T03:05:26.056Z,65.83
2022-10-01T03:05:59.303Z,65.77
2022-10-01T03:06:35.349Z,65.76
2022-10-01T03:07:08.744Z,65.67
2022-10-01T03:07:42.270Z,65.66
2022-10-01T03:08:15.520Z,65.58
2022-10-01T03:08:48.863Z,65.53
2022-10-01T03:09:22.082Z,65.48
2022-10-01T03:09:55.316Z,65.43
2022-10-01T03:10:28.846Z,65.51
2022-10-01T03:11:02.389Z,65.66
2022-10-01T03:11:36.048Z,65.74
2022-10-01T03:12:10.865Z,65.71
2022-10-01T03:12:48.248Z,65.81
2022-10-01T03:13:23.743Z,65.77
2022-10-01T03:13:57.425Z,65.71
2022-10-01T03:14:32.567Z,65.59
2022-10-01T03:15:07.063Z,65.58
2022-10-01T03:15:40.220Z,65.58
2022-10-01T03:16:13.672Z,65.57
2022-10-01T03:16:46.789Z,65.50
2022-10-01T03:17:20.629Z,65.63
2022-10-01T03:17:54.208Z,65.74
2022-10-01T03:18:27.440Z,65.77
2022-10-01T03:19:00.588Z,65.82
2022-10-01T03:19:33.955Z,65.86
2022-10-01T03:20:07.897Z,65.92
2022-10-01T03:20:41.003Z,66.04
2022-10-01T03:21:14.356Z,66.19
2022-10-01T03:21:48.126Z,66.34
2022-10-01T03:22:25.536Z,66.42
2022-10-01T03:22:58.781Z,66.45
2022-10-01T03:23:32.083Z,66.54
2022-10-01T03:24:05.337Z,66.63
2022-10-01T03:24:38.817Z,66.74
2022-10-01T03:25:11.965Z,66.86
2022-10-01T03:25:45.135Z,66.92
2022-10-01T03:26:18.348Z,66.99
2022-10-01T03:26:51.670Z,67.02
2022-10-01T03:27:24.976Z,67.08
2022-10-01T03:27:59.371Z,67.08
2022-10-01T03:28:32.540Z,67.18
2022-10-01T03:29:06.671Z,67.24
2022-10-01T03:29:39.757Z,67.32
2022-10-01T03:30:13.685Z,67.47
2022-10-01T03:30:46.934Z,67.57
2022-10-01T03:31:20.232Z,67.59
2022-10-01T03:31:54.300Z,67.70
2022-10-01T03:32:27.624Z,67.71
2022-10-01T03:33:01.086Z,67.80
2022-10-01T03:33:34.382Z,67.80
2022-10-01T03:34:07.534Z,67.88
2022-10-01T03:34:41.312Z,67.87
2022-10-01T03:35:14.571Z,67.90
2022-10-01T03:35:47.960Z,68.00
2022-10-01T03:36:21.208Z,68.00
2022-10-01T03:36:54.430Z,67.98
2022-10-01T03:37:27.599Z,67.93
2022-10-01T03:38:02.990Z,67.86
2022-10-01T03:38:36.048Z,67.78
2022-10-01T03:39:09.476Z,67.62
2022-10-01T03:39:43.035Z,67.49
2022-10-01T03:40:16.218Z,67.24
2022-10-01T03:40:49.891Z,67.18
2022-10-01T03:41:23.122Z,67.11
2022-10-01T03:41:56.596Z,67.06
2022-10-01T03:42:29.877Z,67.02
2022-10-01T03:43:02.982Z,67.11
2022-10-01T03:43:36.266Z,67.15
2022-10-01T03:44:09.518Z,67.24
2022-10-01T03:44:43.953Z,67.25
2022-10-01T03:45:17.174Z,67.29
2022-10-01T03:45:50.142Z,67.31
2022-10-01T03:46:23.480Z,67.51
2022-10-01T03:46:56.616Z,67.39
2022-10-01T03:47:29.994Z,67.07
2022-10-01T03:48:03.195Z,66.37
2022-10-01T03:48:36.207Z,65.81
2022-10-01T03:49:09.618Z,65.40
2022-10-01T03:49:42.660Z,65.30
2022-10-01T03:50:15.889Z,65.26
2022-10-01T03:51:00.002Z,65.33
2022-10-01T03:51:33.918Z,65.50
2022-10-01T03:52:07.282Z,65.71
2022-10-01T03:52:41.954Z,65.82
2022-10-01T03:53:15.282Z,66.00
2022-10-01T03:53:48.622Z,66.22
2022-10-01T03:54:22.024Z,66.43
2022-10-01T03:54:55.130Z,66.65
2022-10-01T03:55:28.651Z,66.86
2022-10-01T03:56:02.057Z,67.05
2022-10-01T03:56:36.239Z,67.12
2022-10-01T03:57:09.693Z,67.05
2022-10-01T03:57:42.778Z,66.85
2022-10-01T03:58:16.946Z,66.66
2022-10-01T03:58:50.523Z,66.46
2022-10-01T03:59:23.766Z,66.32
2022-10-01T03:59:56.957Z,66.27
2022-10-01T04:00:30.175Z,66.28
2022-10-01T04:01:03.486Z,66.34
2022-10-01T04:01:37.579Z,66.40
2022-10-01T04:02:11.396Z,66.45
2022-10-01T04:02:45.332Z,66.49
2022-10-01T04:03:19.107Z,66.50
2022-10-01T04:03:53.148Z,66.55
2022-10-01T04:04:26.231Z,66.70
2022-10-01T04:04:59.467Z,66.89
2022-10-01T04:05:32.810Z,67.16
2022-10-01T04:06:06.290Z,67.23
2022-10-01T04:06:39.517Z,67.29
2022-10-01T04:07:12.753Z,67.30
2022-10-01T04:07:46.559Z,67.31
2022-10-01T04:08:24.050Z,67.19
2022-10-01T04:08:58.134Z,67.21
2022-10-01T04:09:31.451Z,67.10
2022-10-01T04:10:04.937Z,67.00
2022-10-01T04:10:38.833Z,66.88
2022-10-01T04:11:12.174Z,66.80
2022-10-01T04:11:45.562Z,66.68
2022-10-01T04:12:19.186Z,66.61
2022-10-01T04:12:54.150Z,66.56
2022-10-01T04:13:28.282Z,66.47
2022-10-01T04:14:01.677Z,66.34
2022-10-01T04:14:34.824Z,66.27
2022-10-01T04:15:08.553Z,66.30
2022-10-01T04:15:42.029Z,66.14
2022-10-01T04:16:16.442Z,66.07
2022-10-01T04:16:52.784Z,65.91
2022-10-01T04:17:25.907Z,65.79
2022-10-01T04:18:00.066Z,65.69
2022-10-01T04:18:34.479Z,65.77
2022-10-01T04:19:07.653Z,65.83
2022-10-01T04:19:40.878Z,65.94
2022-10-01T04:20:14.452Z,65.99
2022-10-01T04:20:48.516Z,65.98
2022-10-01T04:21:21.722Z,65.93
2022-10-01T04:21:54.876Z,65.87
2022-10-01T04:22:28.068Z,65.80
2022-10-01T04:23:02.126Z,65.82
2022-10-01T04:23:35.530Z,65.81
2022-10-01T04:24:08.684Z,65.73
2022-10-01T04:24:41.924Z,65.74
2022-10-01T04:25:15.367Z,65.74
2022-10-01T04:25:49.247Z,65.64
2022-10-01T04:26:22.580Z,65.61
2022-10-01T04:26:55.863Z,65.47
2022-10-01T04:27:29.341Z,65.37
2022-10-01T04:28:06.387Z,65.26
2022-10-01T04:28:39.830Z,65.20
2022-10-01T04:29:12.981Z,65.08
2022-10-01T04:29:46.177Z,65.02
2022-10-01T04:30:19.405Z,65.04
2022-10-01T04:31:12.534Z,65.05
2022-10-01T04:31:46.012Z,65.21
2022-10-01T04:32:22.556Z,65.33
2022-10-01T04:32:55.779Z,65.42
2022-10-01T04:33:28.821Z,65.32
2022-10-01T04:34:02.164Z,65.27
2022-10-01T04:34:53.602Z,65.20
2022-10-01T04:35:27.247Z,65.31
2022-10-01T04:36:00.482Z,65.09
2022-10-01T04:36:33.851Z,64.95
2022-10-01T04:37:07.117Z,64.78
2022-10-01T04:37:40.369Z,64.64
2022-10-01T04:38:16.796Z,64.50
2022-10-01T04:38:59.279Z,64.40
2022-10-01T04:39:35.249Z,64.42
2022-10-01T04:40:10.959Z,64.38
2022-10-01T04:40:44.131Z,64.38
2022-10-01T04:41:17.368Z,64.42
2022-10-01T04:41:50.738Z,64.46
2022-10-01T04:42:23.909Z,64.47
2022-10-01T04:42:57.672Z,64.59
2022-10-01T04:43:31.188Z,64.64
2022-10-01T04:44:04.799Z,64.58
2022-10-01T04:44:38.163Z,64.68
2022-10-01T04:45:12.143Z,64.79
2022-10-01T04:45:45.400Z,64.90
2022-10-01T04:46:18.803Z,64.91
2022-10-01T04:46:51.995Z,64.98
2022-10-01T04:47:25.287Z,65.12
2022-10-01T04:47:58.874Z,65.18
2022-10-01T04:48:31.898Z,65.28
2022-10-01T04:49:05.362Z,65.41
2022-10-01T04:49:39.485Z,65.54
2022-10-01T04:50:12.966Z,65.59
2022-10-01T04:50:46.101Z,65.74
2022-10-01T04:51:19.306Z,65.86
2022-10-01T04:51:52.513Z,65.90
2022-10-01T04:52:25.831Z,65.99
2022-10-01T04:52:59.035Z,66.03
2022-10-01T04:53:32.685Z,66.11
2022-10-01T04:54:05.867Z,66.19
2022-10-01T04:54:39.046Z,66.31
2022-10-01T04:55:12.369Z,66.38
2022-10-01T04:55:46.602Z,66.55
2022-10-01T04:56:19.798Z,66.62
2022-10-01T04:56:53.225Z,66.72
2022-10-01T04:57:26.424Z,66.84
2022-10-01T04:57:59.660Z,66.96
2022-10-01T04:58:33.396Z,67.14
2022-10-01T04:59:06.571Z,66.86
2022-10-01T04:59:39.588Z,66.51
2022-10-01T05:00:19.339Z,65.71
2022-10-01T05:00:52.526Z,64.95
2022-10-01T05:01:25.708Z,64.21
2022-10-01T05:01:59.079Z,63.94
2022-10-01T05:02:34.677Z,63.86
2022-10-01T05:03:08.085Z,63.91
2022-10-01T05:03:41.530Z,64.10
2022-10-01T05:04:14.992Z,64.21
2022-10-01T05:04:48.389Z,64.33
2022-10-01T05:05:24.789Z,64.43
2022-10-01T05:05:58.055Z,64.55
2022-10-01T05:06:31.514Z,64.61
2022-10-01T05:07:04.810Z,64.68
2022-10-01T05:07:40.195Z,64.82
2022-10-01T05:08:13.441Z,64.98
2022-10-01T05:08:47.990Z,65.05
2022-10-01T05:09:21.249Z,65.12
2022-10-01T05:09:54.324Z,65.28
2022-10-01T05:10:27.852Z,65.36
2022-10-01T05:11:00.976Z,65.42
2022-10-01T05:11:35.141Z,65.53
2022-10-01T05:12:08.634Z,65.68
2022-10-01T05:12:42.307Z,65.67
2022-10-01T05:13:15.465Z,65.70
2022-10-01T05:13:48.756Z,65.62
2022-10-01T05:14:22.291Z,65.52
2022-10-01T05:14:56.971Z,65.43
2022-10-01T05:15:30.629Z,65.32
2022-10-01T05:16:03.974Z,65.29
2022-10-01T05:16:37.975Z,65.31
2022-10-01T05:17:11.280Z,65.31
2022-10-01T05:17:45.008Z,65.34
2022-10-01T05:18:18.156Z,65.36
2022-10-01T05:18:51.447Z,65.42
2022-10-01T05:19:27.950Z,65.47
2022-10-01T05:20:02.414Z,65.49
2022-10-01T05:20:35.587Z,65.49
2022-10-01T05:21:10.360Z,65.51
2022-10-01T05:21:44.187Z,65.51
2022-10-01T05:22:17.334Z,65.49
2022-10-01T05:22:51.071Z,65.52
2022-10-01T05:23:24.279Z,65.51
2022-10-01T05:23:57.477Z,65.56
2022-10-01T05:24:30.700Z,65.48
2022-10-01T05:25:04.407Z,65.39
2022-10-01T05:25:37.796Z,65.38
2022-10-01T05:26:11.141Z,65.46
2022-10-01T05:26:44.437Z,65.51
2022-10-01T05:27:17.945Z,65.52
2022-10-01T05:27:51.381Z,65.56
2022-10-01T05:28:24.784Z,65.67
2022-10-01T05:29:00.901Z,65.79
2022-10-01T05:29:33.952Z,65.87
2022-10-01T05:30:09.328Z,66.03
2022-10-01T05:30:43.422Z,66.05
2022-10-01T05:31:16.768Z,66.13
2022-10-01T05:31:50.555Z,66.22
2022-10-01T05:32:23.938Z,66.29
2022-10-01T05:32:59.231Z,66.42
2022-10-01T05:33:34.427Z,66.54
2022-10-01T05:34:07.604Z,66.65
2022-10-01T05:34:40.874Z,66.69
2022-10-01T05:35:14.156Z,66.72
2022-10-01T05:35:47.729Z,66.73
2022-10-01T05:36:20.926Z,66.75
2022-10-01T05:36:55.296Z,66.76
2022-10-01T05:37:28.499Z,66.84
2022-10-01T05:38:03.222Z,66.92
2022-10-01T05:38:37.631Z,66.93
2022-10-01T05:39:10.964Z,66.93
2022-10-01T05:39:44.348Z,67.08
2022-10-01T05:40:18.398Z,67.13
2022-10-01T05:40:51.853Z,67.27
2022-10-01T05:41:24.970Z,67.18
2022-10-01T05:42:03.933Z,66.78
2022-10-01T05:42:39.803Z,66.50
2022-10-01T05:43:13.934Z,65.85
2022-10-01T05:43:50.252Z,65.51
2022-10-01T05:44:24.394Z,65.02
2022-10-01T05:44:57.804Z,64.41
2022-10-01T05:45:32.583Z,63.85
2022-10-01T05:46:06.430Z,63.41
2022-10-01T05:46:40.058Z,62.99
2022-10-01T05:47:14.808Z,62.66
2022-10-01T05:47:49.564Z,62.44
2022-10-01T05:48:22.911Z,62.27
2022-10-01T05:48:56.425Z,62.04
2022-10-01T05:49:29.957Z,61.83
2022-10-01T05:50:03.733Z,61.73
2022-10-01T05:50:40.548Z,61.69
2022-10-01T05:51:16.794Z,61.59
2022-10-01T05:51:50.333Z,61.38
2022-10-01T05:52:23.794Z,61.09
2022-10-01T05:52:57.764Z,60.88
2022-10-01T05:53:31.387Z,60.78
2022-10-01T05:54:04.770Z,60.61
2022-10-01T05:54:38.603Z,60.31
2022-10-01T05:55:11.789Z,60.09
2022-10-01T05:55:45.279Z,59.88
2022-10-01T05:56:19.200Z,59.71
2022-10-01T05:56:53.843Z,59.56
2022-10-01T05:57:27.169Z,59.40
2022-10-01T05:58:10.878Z,59.11
2022-10-01T05:58:44.337Z,58.96
2022-10-01T05:59:17.906Z,59.63
2022-10-01T05:59:51.249Z,60.28
2022-10-01T06:00:28.450Z,60.99
2022-10-01T06:01:02.135Z,61.65
2022-10-01T06:01:35.999Z,62.55
2022-10-01T06:02:10.430Z,63.34
2022-10-01T06:02:44.351Z,63.93
2022-10-01T06:03:18.028Z,64.07
2022-10-01T06:03:54.991Z,63.87
2022-10-01T06:04:28.431Z,63.48
2022-10-01T06:05:02.798Z,62.95
2022-10-01T06:05:37.025Z,62.48
2022-10-01T06:06:11.125Z,62.23
2022-10-01T06:06:45.113Z,62.06
2022-10-01T06:07:18.640Z,61.92
2022-10-01T06:07:52.699Z,61.76
2022-10-01T06:08:29.080Z,61.65
2022-10-01T06:09:02.639Z,61.58
2022-10-01T06:09:36.089Z,61.37
2022-10-01T06:10:09.668Z,61.19
2022-10-01T06:10:43.096Z,61.10
2022-10-01T06:11:17.467Z,61.09
2022-10-01T06:11:50.874Z,61.10
2022-10-01T06:12:24.477Z,61.08
2022-10-01T06:13:02.171Z,61.07
2022-10-01T06:13:36.524Z,61.10
2022-10-01T06:14:09.841Z,61.10
2022-10-01T06:14:43.142Z,61.15
2022-10-01T06:15:18.096Z,61.19
2022-10-01T06:15:53.201Z,61.26
2022-10-01T06:16:26.302Z,61.30
2022-10-01T06:16:59.613Z,61.30
2022-10-01T06:17:33.531Z,61.26
2022-10-01T06:18:09.012Z,61.26
2022-10-01T06:18:42.820Z,61.23
2022-10-01T06:19:17.750Z,61.13
2022-10-01T06:19:51.832Z,61.09
2022-10-01T06:20:25.059Z,60.92
2022-10-01T06:21:00.473Z,60.91
2022-10-01T06:21:34.167Z,60.87
2022-10-01T06:22:08.044Z,60.80
2022-10-01T06:22:43.426Z,60.78
2022-10-01T06:23:16.610Z,60.79
2022-10-01T06:23:50.746Z,60.84
2022-10-01T06:24:23.975Z,60.98
2022-10-01T06:24:57.346Z,61.12
2022-10-01T06:25:31.303Z,61.16
2022-10-01T06:26:06.324Z,61.22
2022-10-01T06:26:39.664Z,61.40
2022-10-01T06:27:13.062Z,61.33
2022-10-01T06:27:53.760Z,61.12
2022-10-01T06:28:28.138Z,60.79
2022-10-01T06:29:03.173Z,60.42
2022-10-01T06:29:36.453Z,60.31
2022-10-01T06:30:10.655Z,60.21
2022-10-01T06:30:44.002Z,60.23
2022-10-01T06:31:18.485Z,60.32
2022-10-01T06:31:52.097Z,60.43
2022-10-01T06:32:25.450Z,60.46
2022-10-01T06:33:03.162Z,60.46
2022-10-01T06:33:37.231Z,60.58
2022-10-01T06:34:10.838Z,60.53
2022-10-01T06:34:43.891Z,60.60
2022-10-01T06:35:18.146Z,60.77
2022-10-01T06:35:52.377Z,60.89
2022-10-01T06:36:25.575Z,61.06
2022-10-01T06:36:58.700Z,61.32
2022-10-01T06:37:32.414Z,61.52
2022-10-01T06:38:06.597Z,61.66
2022-10-01T06:38:39.851Z,61.81
2022-10-01T06:39:12.959Z,61.96
2022-10-01T06:39:46.367Z,62.11
2022-10-01T06:40:19.739Z,62.21
2022-10-01T06:41:01.136Z,62.02
2022-10-01T06:41:34.930Z,61.73
2022-10-01T06:42:08.495Z,60.96
2022-10-01T06:42:48.278Z,60.57
2022-10-01T06:43:22.406Z,60.40
2022-10-01T06:43:55.711Z,59.90
2022-10-01T06:44:29.360Z,59.60
2022-10-01T06:45:02.733Z,59.23
2022-10-01T06:45:43.923Z,58.74
2022-10-01T06:46:17.423Z,58.32
2022-10-01T06:46:50.662Z,58.88
2022-10-01T06:47:24.755Z,59.44
2022-10-01T06:48:03.012Z,60.11
2022-10-01T06:48:36.908Z,60.67
2022-10-01T06:49:10.109Z,61.56
2022-10-01T06:49:47.314Z,62.42
2022-10-01T06:50:21.078Z,63.31
2022-10-01T06:50:56.313Z,64.10
2022-10-01T06:51:48.505Z,64.24
2022-10-01T06:52:40.898Z,64.40
2022-10-01T06:53:18.119Z,63.65
2022-10-01T06:53:52.297Z,62.37
2022-10-01T06:54:28.098Z,61.57
2022-10-01T06:55:02.570Z,61.19
2022-10-01T06:55:37.574Z,60.79
2022-10-01T06:56:10.878Z,60.56
2022-10-01T06:56:44.776Z,60.07
2022-10-01T06:57:18.172Z,59.74
2022-10-01T06:57:56.923Z,59.23
2022-10-01T06:58:30.532Z,58.83
2022-10-01T06:59:04.570Z,58.82
2022-10-01T06:59:37.993Z,59.23
2022-10-01T07:00:12.858Z,59.72
2022-10-01T07:00:47.923Z,60.32
2022-10-01T07:01:22.307Z,61.08
2022-10-01T07:01:56.346Z,62.03
2022-10-01T07:02:30.392Z,62.86
2022-10-01T07:03:11.398Z,63.76
2022-10-01T07:03:44.613Z,64.25
2022-10-01T07:04:17.857Z,64.03
2022-10-01T07:04:51.162Z,63.47
2022-10-01T07:05:25.724Z,62.90
2022-10-01T07:06:04.339Z,62.46
2022-10-01T07:06:37.944Z,62.04
2022-10-01T07:07:11.268Z,61.42
2022-10-01T07:07:48.793Z,61.05
2022-10-01T07:08:22.819Z,60.89
2022-10-01T07:08:56.837Z,60.19
2022-10-01T07:09:30.440Z,59.74
2022-10-01T07:10:06.715Z,59.43
2022-10-01T07:10:41.080Z,58.86
2022-10-01T07:11:14.209Z,58.76
2022-10-01T07:11:47.624Z,58.98
2022-10-01T07:12:20.857Z,59.50
2022-10-01T07:12:54.112Z,60.17
2022-10-01T07:13:27.237Z,60.82
2022-10-01T07:14:01.709Z,61.74
2022-10-01T07:14:34.979Z,62.33
2022-10-01T07:15:09.382Z,62.92
2022-10-01T07:15:43.094Z,63.48
2022-10-01T07:16:16.372Z,63.74
2022-10-01T07:16:49.577Z,63.51
2022-10-01T07:17:23.148Z,63.05
2022-10-01T07:17:56.455Z,62.36
2022-10-01T07:18:29.606Z,61.83
2022-10-01T07:19:03.002Z,61.47
2022-10-01T07:19:36.362Z,60.95
2022-10-01T07:20:09.951Z,60.62
2022-10-01T07:20:43.488Z,60.28
2022-10-01T07:21:16.797Z,60.12
2022-10-01T07:21:50.108Z,60.00
2022-10-01T07:22:24.569Z,59.93
2022-10-01T07:22:59.470Z,60.04
2022-10-01T07:23:32.667Z,59.97
2022-10-01T07:24:06.249Z,60.11
2022-10-01T07:24:39.856Z,60.01
2022-10-01T07:25:14.010Z,59.91
2022-10-01T07:25:47.426Z,59.66
2022-10-01T07:26:20.572Z,59.46
2022-10-01T07:26:56.146Z,59.34
2022-10-01T07:27:29.601Z,59.15
2022-10-01T07:28:05.099Z,59.36
2022-10-01T07:28:39.201Z,59.44
2022-10-01T07:29:12.341Z,59.72
2022-10-01T07:29:45.817Z,60.05
2022-10-01T07:30:19.106Z,60.74
2022-10-01T07:31:07.062Z,61.52
2022-10-01T07:31:40.357Z,61.87
2022-10-01T07:32:13.578Z,63.20
2022-10-01T07:32:46.880Z,63.87
2022-10-01T07:33:21.137Z,64.09
2022-10-01T07:33:58.150Z,63.95
2022-10-01T07:34:31.500Z,63.68
2022-10-01T07:35:06.195Z,63.24
2022-10-01T07:35:39.507Z,62.64
2022-10-01T07:36:13.791Z,61.99
2022-10-01T07:36:49.438Z,61.43
2022-10-01T07:37:23.314Z,60.71
2022-10-01T07:37:56.715Z,60.58
2022-10-01T07:38:30.598Z,60.59
2022-10-01T07:39:04.091Z,60.71
2022-10-01T07:39:37.619Z,60.88
2022-10-01T07:40:11.077Z,61.13
2022-10-01T07:40:44.303Z,61.21
2022-10-01T07:41:18.366Z,61.41
2022-10-01T07:41:52.170Z,61.55
2022-10-01T07:42:26.884Z,61.58
2022-10-01T07:43:00.094Z,61.64
2022-10-01T07:43:35.056Z,61.86
2022-10-01T07:44:08.360Z,61.85